Time;durP1;ratioP1;P1;durP2;ratioP2;P2;SDS_P1;SDS_P2;PMS_P1;PMS_P2;Temp;Humidity;BMP_temperature;BMP_pressure;BME280_temperature;BME280_humidity;BME280_pressure;Samples;Min_cycle;Max_cycle;Signal;HPM_P1;HPM_P2
2023/12/27 00:02:22;;;;;;;9.30;5.35;;;;;;;18.27;51.12;102205.97;4965594;28;20053;-44
2023/12/27 00:04:48;;;;;;;6.85;4.72;;;;;;;18.30;51.41;102202.19;4967944;28;20074;-44
2023/12/27 00:07:15;;;;;;;8.77;5.38;;;;;;;18.30;51.34;102210.25;4966361;28;20500;-44
2023/12/27 00:09:42;;;;;;;7.93;4.75;;;;;;;18.26;50.89;102206.94;4964828;28;20147;-43
2023/12/27 00:12:08;;;;;;;8.23;5.10;;;;;;;18.21;51.21;102210.00;4965857;28;20058;-43
2023/12/27 00:14:35;;;;;;;8.27;5.03;;;;;;;18.16;51.33;102206.81;4967051;28;20055;-44
2023/12/27 00:17:02;;;;;;;9.73;4.68;;;;;;;18.11;51.55;102203.66;4967376;28;20450;-44
2023/12/27 00:19:28;;;;;;;8.18;4.80;;;;;;;18.08;51.12;102203.03;4966597;28;20055;-43
2023/12/27 00:21:55;;;;;;;8.52;5.00;;;;;;;18.04;51.30;102201.56;4967594;28;20133;-43
2023/12/27 00:24:21;;;;;;;7.68;4.82;;;;;;;18.00;51.39;102200.94;4966028;28;20050;-43
2023/12/27 00:26:48;;;;;;;8.80;4.95;;;;;;;17.98;51.74;102209.13;4967420;28;20073;-44
2023/12/27 00:29:15;;;;;;;7.85;4.78;;;;;;;17.95;51.34;102204.00;4967157;28;20050;-43
2023/12/27 00:31:41;;;;;;;6.63;4.47;;;;;;;17.91;51.40;102197.16;4970563;28;20325;-44
2023/12/27 00:34:08;;;;;;;7.20;4.72;;;;;;;17.89;51.35;102199.13;4968147;28;20074;-43
2023/12/27 00:36:35;;;;;;;8.32;5.00;;;;;;;17.84;51.68;102190.56;4967135;28;20135;-43
2023/12/27 00:39:03;;;;;;;6.93;4.32;;;;;;;17.78;51.75;102191.06;4968989;28;20055;-43
2023/12/27 00:41:30;;;;;;;6.80;4.53;;;;;;;17.71;51.68;102193.31;4964599;28;20070;-43
2023/12/27 00:43:57;;;;;;;7.07;4.93;;;;;;;17.65;51.62;102193.78;4969481;28;20565;-45
2023/12/27 00:46:23;;;;;;;6.45;4.47;;;;;;;17.58;51.87;102199.75;4967239;28;20370;-43
2023/12/27 00:48:50;;;;;;;6.10;4.18;;;;;;;17.50;51.88;102198.50;4967275;28;20050;-46
2023/12/27 00:51:20;;;;;;;6.38;4.55;;;;;;;17.42;51.83;102189.34;4965812;28;20140;-46
2023/12/27 00:53:49;;;;;;;6.13;4.45;;;;;;;17.35;51.87;102182.72;4968047;28;20044;-44
2023/12/27 00:56:15;;;;;;;7.32;4.75;;;;;;;17.25;52.64;102186.13;4967236;28;20061;-43
2023/12/27 00:58:42;;;;;;;7.30;4.75;;;;;;;17.21;52.42;102184.63;4967965;28;20137;-43
2023/12/27 01:01:11;;;;;;;6.85;4.60;;;;;;;17.18;52.68;102187.53;4965004;28;20102;-43
2023/12/27 01:03:38;;;;;;;7.00;4.47;;;;;;;17.19;52.83;102180.34;4963982;28;20352;-44
2023/12/27 01:06:07;;;;;;;7.25;4.65;;;;;;;17.22;52.83;102177.44;4963316;28;20051;-43
2023/12/27 01:08:34;;;;;;;7.18;4.43;;;;;;;17.31;52.42;102189.28;4966977;28;20059;-43
2023/12/27 01:11:01;;;;;;;6.45;4.32;;;;;;;17.38;52.30;102183.34;4966048;28;20058;-43
2023/12/27 01:13:28;;;;;;;7.78;4.22;;;;;;;17.48;52.32;102183.50;4969252;28;20102;-44
2023/12/27 01:15:55;;;;;;;6.22;3.92;;;;;;;17.55;52.20;102184.75;4968543;28;20065;-42
2023/12/27 01:18:22;;;;;;;6.00;4.13;;;;;;;17.63;52.09;102186.84;4965151;28;20431;-43
2023/12/27 01:20:49;;;;;;;7.75;4.55;;;;;;;17.67;51.75;102186.47;4967092;28;20043;-42
2023/12/27 01:23:15;;;;;;;6.55;4.20;;;;;;;17.68;51.91;102182.81;4963891;28;20061;-43
2023/12/27 01:25:42;;;;;;;6.30;4.25;;;;;;;17.70;51.65;102180.88;4967805;28;20062;-43
2023/12/27 01:28:08;;;;;;;7.22;4.32;;;;;;;17.69;51.83;102172.97;4964083;28;20058;-43
2023/12/27 01:30:35;;;;;;;5.63;4.05;;;;;;;17.65;51.37;102169.66;4964520;28;20062;-43
2023/12/27 01:33:02;;;;;;;7.25;4.70;;;;;;;17.66;51.87;102160.66;4963987;28;20063;-43
2023/12/27 01:35:29;;;;;;;7.30;4.45;;;;;;;17.66;52.10;102155.28;4965907;28;20450;-43
2023/12/27 01:37:56;;;;;;;8.10;4.13;;;;;;;17.66;52.04;102155.28;4963365;28;20058;-43
2023/12/27 01:40:23;;;;;;;6.13;3.70;;;;;;;17.65;51.52;102164.31;4964948;28;20097;-43
2023/12/27 01:42:50;;;;;;;5.15;3.92;;;;;;;17.64;51.73;102177.81;4965814;28;20125;-43
2023/12/27 01:45:16;;;;;;;5.70;4.15;;;;;;;17.59;51.28;102186.22;4965441;28;20082;-43
2023/12/27 01:47:43;;;;;;;8.25;4.25;;;;;;;17.54;51.68;102184.88;4964860;28;20038;-43
2023/12/27 01:50:10;;;;;;;7.30;4.38;;;;;;;17.46;51.74;102188.97;4965286;28;20054;-44
2023/12/27 01:52:39;;;;;;;6.13;4.00;;;;;;;17.41;52.16;102193.00;4966468;28;20083;-43
2023/12/27 01:55:10;;;;;;;6.35;4.18;;;;;;;17.34;52.10;102192.59;4965054;28;20055;-44
2023/12/27 01:57:40;;;;;;;6.15;4.32;;;;;;;17.26;52.34;102193.16;4966697;28;20823;-45
2023/12/27 02:00:09;;;;;;;9.10;4.60;;;;;;;17.20;52.12;102196.28;4961259;28;20047;-43
2023/12/27 02:02:39;;;;;;;6.00;4.07;;;;;;;17.14;51.97;102191.41;4964899;28;20074;-43
2023/12/27 02:05:06;;;;;;;9.25;4.28;;;;;;;17.09;52.63;102179.34;4965616;28;20138;-44
2023/12/27 02:07:34;;;;;;;8.38;4.85;;;;;;;17.09;53.13;102176.66;4965437;28;20066;-44
2023/12/27 02:10:01;;;;;;;5.07;3.88;;;;;;;17.10;52.94;102173.88;4965045;28;20059;-43
2023/12/27 02:12:29;;;;;;;8.75;4.28;;;;;;;17.12;52.99;102177.25;4962970;28;20074;-43
2023/12/27 02:14:57;;;;;;;6.38;4.13;;;;;;;17.14;52.68;102186.06;4965174;28;20094;-44
2023/12/27 02:17:26;;;;;;;5.70;3.90;;;;;;;17.22;52.80;102172.94;4965906;28;20157;-44
2023/12/27 02:19:54;;;;;;;5.93;4.10;;;;;;;17.34;52.00;102170.31;4966786;28;20073;-44
2023/12/27 02:22:23;;;;;;;6.78;4.57;;;;;;;17.41;52.08;102169.72;4967221;28;20054;-43
2023/12/27 02:24:51;;;;;;;7.15;4.28;;;;;;;17.49;52.07;102164.63;4967803;28;20058;-43
2023/12/27 02:27:18;;;;;;;5.88;3.90;;;;;;;17.56;51.63;102166.81;4967654;28;20046;-43
2023/12/27 02:29:45;;;;;;;6.10;3.72;;;;;;;17.62;52.06;102161.84;4965509;28;20174;-43
2023/12/27 02:32:11;;;;;;;5.95;4.10;;;;;;;17.66;51.63;102166.00;4966848;28;20251;-42
2023/12/27 02:34:38;;;;;;;9.50;4.07;;;;;;;17.67;51.69;102161.50;4964706;28;20640;-42
2023/12/27 02:37:05;;;;;;;6.72;4.03;;;;;;;17.67;51.13;102165.03;4966196;28;20047;-42
2023/12/27 02:39:32;;;;;;;5.85;4.32;;;;;;;17.64;51.69;102154.53;4963752;28;20423;-45
2023/12/27 02:41:58;;;;;;;6.22;4.20;;;;;;;17.64;51.60;102151.84;4968136;28;20062;-45
2023/12/27 02:44:26;;;;;;;7.38;3.90;;;;;;;17.65;51.86;102137.50;4962656;28;20082;-42
2023/12/27 02:46:53;;;;;;;5.60;4.13;;;;;;;17.64;51.77;102140.28;4964794;28;20087;-45
2023/12/27 02:49:20;;;;;;;5.65;4.10;;;;;;;17.63;51.79;102134.06;4964920;28;20333;-45
2023/12/27 02:51:48;;;;;;;6.60;4.20;;;;;;;17.62;51.67;102121.63;4964628;28;20050;-42
2023/12/27 02:54:14;;;;;;;5.47;3.78;;;;;;;17.61;51.46;102121.72;4965229;28;20097;-43
2023/12/27 02:56:41;;;;;;;6.40;4.28;;;;;;;17.58;51.49;102122.00;4962547;28;20059;-43
2023/12/27 02:59:09;;;;;;;5.68;3.65;;;;;;;17.54;51.52;102129.41;4963080;28;20105;-43
2023/12/27 03:01:35;;;;;;;6.65;4.20;;;;;;;17.50;51.50;102125.28;4960567;28;20427;-44
2023/12/27 03:04:02;;;;;;;4.90;3.58;;;;;;;17.43;51.61;102122.19;4964566;28;20047;-44
2023/12/27 03:06:29;;;;;;;5.57;3.80;;;;;;;17.38;52.09;102120.84;4963302;28;20471;-44
2023/12/27 03:08:55;;;;;;;6.15;3.90;;;;;;;17.31;52.27;102111.59;4964627;28;20050;-44
2023/12/27 03:11:22;;;;;;;5.70;4.03;;;;;;;17.25;52.33;102107.56;4965690;28;20073;-44
2023/12/27 03:13:49;;;;;;;7.18;4.05;;;;;;;17.20;52.72;102115.06;4964268;28;20051;-45
2023/12/27 03:16:18;;;;;;;6.38;3.63;;;;;;;17.15;52.75;102101.19;4965111;28;20085;-44
2023/12/27 03:18:45;;;;;;;6.38;4.20;;;;;;;17.09;52.57;102094.47;4969444;28;20579;-44
2023/12/27 03:21:11;;;;;;;5.93;3.78;;;;;;;17.03;52.48;102087.75;4967454;28;20059;-44
2023/12/27 03:23:38;;;;;;;5.88;3.60;;;;;;;16.98;53.06;102079.22;4968028;28;21044;-43
2023/12/27 03:26:05;;;;;;;6.22;3.70;;;;;;;16.95;52.78;102081.25;4967010;28;20055;-43
2023/12/27 03:28:32;;;;;;;6.30;3.53;;;;;;;16.96;52.61;102074.94;4966804;28;20051;-43
2023/12/27 03:30:58;;;;;;;5.90;3.65;;;;;;;16.97;53.15;102065.94;4966494;28;20058;-43
2023/12/27 03:33:25;;;;;;;5.47;3.60;;;;;;;16.99;53.06;102066.66;4968144;28;20057;-44
2023/12/27 03:35:52;;;;;;;5.43;3.60;;;;;;;17.05;53.43;102068.91;4968272;28;20058;-44
2023/12/27 03:38:19;;;;;;;5.88;3.92;;;;;;;17.14;53.06;102064.66;4965317;28;20055;-44
2023/12/27 03:40:45;;;;;;;5.18;3.78;;;;;;;17.25;52.68;102059.31;4969366;28;20149;-44
2023/12/27 03:43:12;;;;;;;4.85;3.50;;;;;;;17.35;52.60;102052.25;4969715;28;20054;-43
2023/12/27 03:45:39;;;;;;;5.53;3.63;;;;;;;17.44;52.32;102050.69;4965120;28;20059;-43
2023/12/27 03:48:05;;;;;;;4.80;2.90;;;;;;;17.52;52.08;102049.09;4965001;28;20058;-43
2023/12/27 03:50:33;;;;;;;7.28;3.90;;;;;;;17.59;51.96;102043.28;4968635;28;20049;-43
2023/12/27 03:52:59;;;;;;;3.97;3.10;;;;;;;17.65;51.94;102037.44;4965815;28;20137;-43
2023/12/27 03:55:26;;;;;;;6.30;3.85;;;;;;;17.67;51.87;102039.00;4970685;28;20169;-43
2023/12/27 03:57:53;;;;;;;5.45;3.22;;;;;;;17.67;51.96;102039.00;4968268;28;20068;-43
2023/12/27 04:00:21;;;;;;;4.15;2.97;;;;;;;17.66;51.86;102031.09;4967522;28;20106;-43
2023/12/27 04:02:48;;;;;;;4.43;3.13;;;;;;;17.65;51.83;102037.44;4967412;28;20341;-43
2023/12/27 04:05:15;;;;;;;6.35;3.38;;;;;;;17.64;51.42;102038.38;4968448;28;20386;-43
2023/12/27 04:07:41;;;;;;;4.55;3.05;;;;;;;17.63;51.96;102026.81;4969539;28;20061;-43
2023/12/27 04:10:08;;;;;;;4.93;3.70;;;;;;;17.62;51.86;102025.13;4969372;28;20055;-43
2023/12/27 04:12:35;;;;;;;5.50;3.20;;;;;;;17.59;51.56;102011.94;4966247;28;20353;-43
2023/12/27 04:15:02;;;;;;;6.47;3.47;;;;;;;17.58;51.73;102012.94;4967970;28;20053;-43
2023/12/27 04:17:29;;;;;;;5.88;3.30;;;;;;;17.57;51.78;102008.56;4962957;28;20055;-43
2023/12/27 04:19:55;;;;;;;4.85;3.28;;;;;;;17.55;51.97;102002.44;4969597;28;20062;-44
2023/12/27 04:22:22;;;;;;;5.40;3.45;;;;;;;17.52;51.69;101997.31;4968141;28;20050;-43
2023/12/27 04:24:48;;;;;;;4.55;3.00;;;;;;;17.46;51.80;102001.34;4970887;28;20110;-44
2023/12/27 04:27:15;;;;;;;6.30;3.45;;;;;;;17.41;51.83;101997.34;4965697;28;20047;-45
2023/12/27 04:29:42;;;;;;;6.35;3.78;;;;;;;17.36;51.90;101988.78;4970767;28;20327;-45
2023/12/27 04:32:08;;;;;;;7.00;3.10;;;;;;;17.28;51.97;101984.88;4965070;28;20051;-44
2023/12/27 04:34:35;;;;;;;5.53;3.15;;;;;;;17.24;52.06;101979.91;4968787;28;20078;-44
2023/12/27 04:37:02;;;;;;;6.97;3.92;;;;;;;17.18;52.34;101970.53;4965454;28;20058;-44
2023/12/27 04:39:31;;;;;;;6.18;3.65;;;;;;;17.11;51.95;101966.63;4967726;28;20679;-44
2023/12/27 04:41:57;;;;;;;4.03;2.95;;;;;;;17.06;52.30;101966.13;4967127;28;20056;-44
2023/12/27 04:44:24;;;;;;;6.22;3.00;;;;;;;17.01;52.25;101976.34;4964778;28;20077;-44
2023/12/27 04:46:50;;;;;;;4.95;3.08;;;;;;;16.96;52.46;101963.28;4970010;28;20059;-44
2023/12/27 04:49:17;;;;;;;5.07;3.00;;;;;;;16.90;52.79;101965.63;4964397;28;20051;-43
2023/12/27 04:51:46;;;;;;;6.05;3.30;;;;;;;16.83;53.29;101975.94;4970920;28;20401;-44
2023/12/27 04:54:12;;;;;;;6.28;3.42;;;;;;;16.79;52.84;101963.75;4967653;28;20053;-44
2023/12/27 04:56:39;;;;;;;4.70;3.00;;;;;;;16.75;53.26;101964.97;4962345;28;20051;-44
2023/12/27 04:59:06;;;;;;;5.55;3.10;;;;;;;16.76;53.43;101959.50;4963217;28;20594;-44
2023/12/27 05:01:32;;;;;;;4.43;2.83;;;;;;;16.82;53.69;101943.94;4966556;28;20601;-45
2023/12/27 05:03:59;;;;;;;5.72;3.28;;;;;;;16.93;53.48;101946.66;4961682;28;20051;-44
2023/12/27 05:06:25;;;;;;;5.55;3.35;;;;;;;17.05;52.97;101943.00;4962544;28;20058;-44
2023/12/27 05:08:52;;;;;;;5.45;3.47;;;;;;;17.14;53.19;101936.91;4966900;28;20054;-44
2023/12/27 05:11:20;;;;;;;5.03;3.00;;;;;;;17.22;52.22;101931.81;4963301;28;21106;-44
2023/12/27 05:13:47;;;;;;;6.13;3.00;;;;;;;17.32;52.18;101933.75;4963532;28;20493;-43
2023/12/27 05:16:17;;;;;;;7.60;3.38;;;;;;;17.39;52.57;101932.28;4968657;28;20074;-43
2023/12/27 05:18:45;;;;;;;5.18;3.10;;;;;;;17.46;51.98;101933.50;4970889;28;20121;-43
2023/12/27 05:21:13;;;;;;;6.05;3.00;;;;;;;17.49;52.04;101927.91;4964048;28;20447;-43
2023/12/27 05:23:39;;;;;;;4.85;2.90;;;;;;;17.50;52.08;101921.56;4964634;28;20137;-43
2023/12/27 05:26:06;;;;;;;5.40;2.95;;;;;;;17.51;51.91;101912.53;4968825;28;20117;-44
2023/12/27 05:28:33;;;;;;;4.53;2.60;;;;;;;17.52;51.90;101906.19;4965858;28;20072;-43
2023/12/27 05:31:00;;;;;;;5.82;2.90;;;;;;;17.51;52.12;101905.34;4965364;28;20141;-43
2023/12/27 05:33:27;;;;;;;4.20;2.80;;;;;;;17.51;52.03;101907.16;4965932;28;20146;-44
2023/12/27 05:35:54;;;;;;;3.75;2.50;;;;;;;17.49;52.12;101901.94;4963610;28;20051;-44
2023/12/27 05:38:23;;;;;;;5.93;2.75;;;;;;;17.49;51.51;101901.09;4967390;28;20383;-44
2023/12/27 05:40:50;;;;;;;6.40;3.05;;;;;;;17.47;52.05;101892.31;4964142;28;20058;-44
2023/12/27 05:43:17;;;;;;;3.92;2.75;;;;;;;17.47;51.86;101892.31;4964277;28;20129;-44
2023/12/27 05:45:43;;;;;;;5.18;2.92;;;;;;;17.46;52.13;101879.91;4966401;28;20438;-44
2023/12/27 05:48:10;;;;;;;6.10;3.13;;;;;;;17.45;51.68;101887.09;4964577;28;20454;-44
2023/12/27 05:50:37;;;;;;;5.93;3.58;;;;;;;17.45;51.86;101883.56;4967101;28;20375;-45
2023/12/27 05:53:03;;;;;;;4.95;2.95;;;;;;;17.46;51.63;101877.22;4964850;28;20102;-44
2023/12/27 05:55:30;;;;;;;4.30;2.58;;;;;;;17.45;52.02;101868.31;4966368;28;20469;-44
2023/12/27 05:57:57;;;;;;;6.18;2.67;;;;;;;17.44;51.81;101871.97;4964616;28;20065;-45
2023/12/27 06:00:24;;;;;;;4.47;2.65;;;;;;;17.45;51.73;101870.16;4967731;28;20050;-44
2023/12/27 06:02:51;;;;;;;5.60;2.90;;;;;;;17.45;51.93;101867.47;4963449;28;20055;-43
2023/12/27 06:05:19;;;;;;;3.25;2.13;;;;;;;17.44;51.87;101869.28;4968142;28;20430;-44
2023/12/27 06:07:46;;;;;;;4.88;2.75;;;;;;;17.43;51.67;101862.22;4964060;28;20055;-43
2023/12/27 06:10:14;;;;;;;4.97;2.40;;;;;;;17.43;51.99;101856.00;4966537;28;20062;-43
2023/12/27 06:12:41;;;;;;;5.78;2.65;;;;;;;17.44;51.45;101844.31;4966828;28;20121;-43
2023/12/27 06:15:09;;;;;;;5.43;2.65;;;;;;;17.41;51.86;101849.94;4965150;28;20153;-43
2023/12/27 06:17:36;;;;;;;4.35;2.55;;;;;;;17.36;51.90;101846.78;4967089;28;20059;-44
2023/12/27 06:20:04;;;;;;;4.07;2.58;;;;;;;17.39;52.27;101846.53;4965072;28;20055;-44
2023/12/27 06:22:31;;;;;;;4.75;2.42;;;;;;;17.45;52.00;101844.22;4967370;28;20525;-44
2023/12/27 06:24:57;;;;;;;4.65;2.67;;;;;;;17.49;51.79;101824.22;4962988;28;20062;-43
2023/12/27 06:27:24;;;;;;;5.38;2.88;;;;;;;17.55;51.47;101819.31;4963637;28;20047;-43
2023/12/27 06:29:51;;;;;;;3.72;2.40;;;;;;;17.58;51.49;101819.91;4964325;28;20049;-43
2023/12/27 06:32:17;;;;;;;5.53;2.67;;;;;;;17.63;51.23;101820.38;4962254;28;20082;-43
2023/12/27 06:34:44;;;;;;;5.72;2.55;;;;;;;17.65;51.16;101810.41;4964880;28;20398;-44
2023/12/27 06:37:10;;;;;;;4.60;2.95;;;;;;;17.67;51.33;101802.22;4962513;28;20118;-43
2023/12/27 06:39:37;;;;;;;7.00;2.90;;;;;;;17.68;51.52;101799.41;4965741;28;20047;-43
2023/12/27 06:42:04;;;;;;;5.68;2.67;;;;;;;17.65;51.21;101798.81;4961650;28;20093;-43
2023/12/27 06:44:31;;;;;;;6.05;2.80;;;;;;;17.64;50.87;101805.16;4965464;28;20055;-43
2023/12/27 06:46:57;;;;;;;5.47;2.60;;;;;;;17.60;50.88;101796.50;4965880;28;20448;-43
2023/12/27 06:49:24;;;;;;;5.80;2.72;;;;;;;17.57;51.22;101790.53;4966408;28;20074;-43
2023/12/27 06:51:50;;;;;;;5.80;3.05;;;;;;;17.55;51.16;101790.69;4967280;28;20098;-42
2023/12/27 06:54:17;;;;;;;5.22;2.78;;;;;;;17.60;50.79;101783.09;4968871;28;20050;-43
2023/12/27 06:56:44;;;;;;;4.57;3.00;;;;;;;17.65;51.08;101786.28;4966632;28;20058;-42
2023/12/27 06:59:10;;;;;;;6.43;3.00;;;;;;;17.72;50.62;101782.06;4965497;28;20047;-43
2023/12/27 07:01:37;;;;;;;4.53;2.58;;;;;;;17.82;50.69;101768.78;4965470;28;20061;-42
2023/12/27 07:04:04;;;;;;;5.13;2.35;;;;;;;17.89;50.70;101761.94;4966342;28;20043;-43
2023/12/27 07:06:31;;;;;;;5.28;2.33;;;;;;;17.99;50.78;101762.84;4965860;28;20134;-43
2023/12/27 07:08:57;;;;;;;5.63;2.33;;;;;;;18.09;50.27;101759.34;4968789;28;20382;-43
2023/12/27 07:11:25;;;;;;;6.82;2.45;;;;;;;18.16;50.68;101756.00;4966012;28;20137;-43
2023/12/27 07:13:52;;;;;;;4.35;2.03;;;;;;;18.23;50.29;101757.19;4967754;28;20047;-43
2023/12/27 07:16:19;;;;;;;5.43;2.40;;;;;;;18.32;50.05;101757.38;4964831;28;20347;-43
2023/12/27 07:18:45;;;;;;;4.20;2.10;;;;;;;18.38;49.91;101743.44;4965986;28;20411;-43
2023/12/27 07:21:12;;;;;;;4.07;2.10;;;;;;;18.46;49.64;101751.66;4968657;28;20450;-43
2023/12/27 07:23:39;;;;;;;4.60;2.30;;;;;;;18.52;49.71;101742.22;4965881;28;20053;-43
2023/12/27 07:26:11;;;;;;;4.18;2.05;;;;;;;18.57;49.16;101740.81;4961852;28;20055;-44
2023/12/27 07:28:37;;;;;;;4.53;2.10;;;;;;;18.64;49.75;101738.44;4966301;28;20416;-43
2023/12/27 07:31:04;;;;;;;4.72;2.38;;;;;;;18.69;49.24;101745.13;4967216;28;20484;-43
2023/12/27 07:33:31;;;;;;;4.10;1.90;;;;;;;18.73;49.39;101733.16;4965414;28;20043;-43
2023/12/27 07:35:57;;;;;;;4.78;2.35;;;;;;;18.79;49.30;101730.91;4963177;28;20105;-43
2023/12/27 07:38:26;;;;;;;4.82;2.17;;;;;;;18.82;49.06;101734.16;4967316;28;20051;-43
2023/12/27 07:40:55;;;;;;;5.05;2.80;;;;;;;18.87;49.31;101733.75;4966622;28;20339;-43
2023/12/27 07:43:23;;;;;;;4.35;2.13;;;;;;;18.89;49.26;101726.38;4967218;28;20051;-43
2023/12/27 07:45:49;;;;;;;5.25;2.22;;;;;;;18.90;48.90;101725.44;4961742;28;20050;-43
2023/12/27 07:48:16;;;;;;;3.63;1.98;;;;;;;18.90;49.34;101717.38;4962568;28;20296;-44
2023/12/27 07:50:43;;;;;;;6.40;2.55;;;;;;;18.90;48.55;101728.13;4965162;28;21895;-44
2023/12/27 07:53:10;;;;;;;4.22;2.53;;;;;;;18.86;48.61;101719.47;4969253;28;20054;-43
2023/12/27 07:55:37;;;;;;;3.63;1.88;;;;;;;18.83;48.68;101719.75;4963541;28;20051;-43
2023/12/27 07:58:04;;;;;;;4.53;2.08;;;;;;;18.77;48.95;101717.59;4965438;28;20054;-43
2023/12/27 08:00:31;;;;;;;4.22;2.17;;;;;;;18.70;49.13;101722.69;4968226;28;20054;-43
2023/12/27 08:02:58;;;;;;;6.40;2.25;;;;;;;18.64;49.06;101715.13;4959663;28;20059;-43
2023/12/27 08:05:25;;;;;;;5.63;2.20;;;;;;;18.56;49.08;101714.97;4967405;28;20055;-43
2023/12/27 08:07:52;;;;;;;4.28;2.10;;;;;;;18.50;49.32;101710.16;4967011;28;20439;-43
2023/12/27 08:10:19;;;;;;;4.40;2.10;;;;;;;18.42;49.23;101702.78;4968393;28;20054;-42
2023/12/27 08:12:46;;;;;;;4.35;2.33;;;;;;;18.39;49.39;101703.03;4963949;28;20050;-42
2023/12/27 08:15:13;;;;;;;6.07;2.25;;;;;;;18.39;49.43;101700.34;4965199;28;20644;-43
2023/12/27 08:17:39;;;;;;;4.35;1.77;;;;;;;18.40;49.08;101703.88;4964376;28;20046;-43
2023/12/27 08:20:07;;;;;;;4.25;2.03;;;;;;;18.39;49.31;101694.13;4967798;28;20047;-43
2023/12/27 08:22:33;;;;;;;3.67;1.85;;;;;;;18.38;48.91;101687.06;4968432;28;20051;-43
2023/12/27 08:25:00;;;;;;;3.72;1.73;;;;;;;18.37;49.00;101686.22;4965967;28;20050;-42
2023/12/27 08:27:27;;;;;;;5.55;2.33;;;;;;;18.34;49.29;101683.81;4965127;28;20062;-43
2023/12/27 08:29:54;;;;;;;4.18;1.80;;;;;;;18.30;49.43;101687.75;4965868;28;20125;-43
2023/12/27 08:32:20;;;;;;;3.40;2.00;;;;;;;18.25;48.96;101689.97;4966182;28;20054;-43
2023/12/27 08:34:49;;;;;;;2.90;1.67;;;;;;;18.20;49.22;101671.59;4966911;28;20062;-43
2023/12/27 08:37:16;;;;;;;4.03;1.98;;;;;;;18.16;49.61;101672.84;4965368;28;20051;-42
2023/12/27 08:39:43;;;;;;;5.85;2.53;;;;;;;18.13;49.86;101665.09;4968089;28;20078;-42
2023/12/27 08:42:10;;;;;;;8.32;4.20;;;;;;;18.10;49.63;101656.44;4967352;28;20057;-43
2023/12/27 08:44:37;;;;;;;7.85;4.13;;;;;;;18.06;49.94;101647.81;4963008;28;20055;-43
2023/12/27 08:47:03;;;;;;;7.53;3.78;;;;;;;18.03;49.88;101647.22;4965284;28;20055;-42
2023/12/27 08:49:30;;;;;;;7.50;3.25;;;;;;;17.99;49.85;101642.13;4962697;28;20431;-42
2023/12/27 08:51:57;;;;;;;5.85;3.38;;;;;;;17.95;49.79;101646.06;4965427;28;20055;-42
2023/12/27 08:54:23;;;;;;;7.30;4.03;;;;;;;17.91;50.29;101636.59;4968230;28;20315;-42
2023/12/27 08:56:50;;;;;;;6.88;3.70;;;;;;;17.90;50.39;101631.38;4964542;28;20051;-42
2023/12/27 08:59:18;;;;;;;5.43;3.28;;;;;;;17.89;50.16;101635.00;4961438;28;20060;-42
2023/12/27 09:01:44;;;;;;;5.07;2.90;;;;;;;17.89;50.48;101633.19;4964660;28;20058;-43
2023/12/27 09:04:11;;;;;;;6.55;3.47;;;;;;;17.91;50.37;101628.53;4962857;28;20098;-42
2023/12/27 09:06:38;;;;;;;5.28;2.80;;;;;;;17.94;50.07;101622.91;4962713;28;20047;-42
2023/12/27 09:09:04;;;;;;;4.28;2.70;;;;;;;17.98;49.74;101612.78;4962435;28;20079;-41
2023/12/27 09:11:31;;;;;;;5.40;2.80;;;;;;;18.03;49.67;101604.31;4965621;28;20093;-42
2023/12/27 09:14:08;;;;;;;4.20;2.90;;;;;;;18.07;49.80;101609.28;4965533;28;20399;-42
2023/12/27 09:16:35;;;;;;;6.18;3.28;;;;;;;18.11;49.51;101615.22;4962631;28;20043;-42
2023/12/27 09:19:02;;;;;;;4.75;2.72;;;;;;;18.15;49.54;101620.16;4960633;28;20121;-42
2023/12/27 09:21:29;;;;;;;4.95;2.97;;;;;;;18.20;49.72;101607.19;4965712;28;20073;-41
2023/12/27 09:23:57;;;;;;;4.93;2.95;;;;;;;18.23;49.50;101596.19;4965015;28;20370;-42
2023/12/27 09:26:24;;;;;;;5.15;2.95;;;;;;;18.25;49.23;101598.72;4963864;28;20137;-42
2023/12/27 09:28:50;;;;;;;6.28;2.58;;;;;;;18.25;49.38;101594.22;4965754;28;20167;-42
2023/12/27 09:31:17;;;;;;;4.30;2.80;;;;;;;18.25;49.66;101598.72;4962151;28;20059;-42
2023/12/27 09:33:45;;;;;;;6.35;2.58;;;;;;;18.23;49.57;101600.72;4960734;28;20102;-42
2023/12/27 09:36:12;;;;;;;5.00;3.05;;;;;;;18.21;49.29;101598.19;4961477;28;20068;-42
2023/12/27 09:38:39;;;;;;;5.25;3.38;;;;;;;18.18;49.20;101589.53;4965739;28;20455;-42
2023/12/27 09:41:07;;;;;;;5.30;3.17;;;;;;;18.14;49.62;101585.44;4965430;28;20453;-42
2023/12/27 09:43:36;;;;;;;4.05;2.80;;;;;;;18.10;49.91;101594.75;4957622;28;20133;-43
2023/12/27 09:46:04;;;;;;;4.53;3.10;;;;;;;18.06;49.57;101594.16;4968823;28;20105;-42
2023/12/27 09:48:35;;;;;;;4.38;3.00;;;;;;;18.03;49.59;101578.34;4963915;28;20078;-42
2023/12/27 09:51:04;;;;;;;4.60;2.83;;;;;;;18.01;50.01;101569.59;4963647;28;20771;-42
2023/12/27 09:53:31;;;;;;;5.20;2.95;;;;;;;18.02;49.68;101563.22;4966885;28;20469;-42
2023/12/27 09:55:59;;;;;;;3.80;2.63;;;;;;;18.04;49.94;101555.88;4967022;28;20117;-43
2023/12/27 09:58:29;;;;;;;4.75;2.72;;;;;;;18.07;50.10;101558.28;4964432;28;20055;-44
2023/12/27 10:00:59;;;;;;;4.68;2.88;;;;;;;18.10;50.03;101555.34;4962606;28;20134;-43
2023/12/27 10:03:38;;;;;;;4.50;2.55;;;;;;;18.15;49.70;101546.88;4966023;28;20074;-42
2023/12/27 10:06:20;;;;;;;5.57;2.65;;;;;;;18.18;49.81;101549.31;4964108;28;20299;-42
2023/12/27 10:08:48;;;;;;;3.78;2.55;;;;;;;18.20;49.52;101548.16;4966243;28;20058;-41
2023/12/27 10:11:17;;;;;;;4.15;2.67;;;;;;;18.23;49.41;101539.00;4963705;28;20053;-42
2023/12/27 10:13:45;;;;;;;3.80;2.47;;;;;;;18.25;49.33;101545.94;4965256;28;20058;-42
2023/12/27 10:16:11;;;;;;;4.03;2.75;;;;;;;18.30;49.65;101552.72;4963069;28;20093;-42
2023/12/27 10:18:38;;;;;;;4.43;2.70;;;;;;;18.33;49.56;101555.09;4965197;28;20082;-43
2023/12/27 10:21:05;;;;;;;4.93;2.72;;;;;;;18.35;49.20;101535.19;4966979;28;20050;-42
2023/12/27 10:23:34;;;;;;;5.90;3.40;;;;;;;18.38;49.44;101542.97;4967094;28;20055;-42
2023/12/27 10:26:02;;;;;;;4.05;2.50;;;;;;;18.39;49.29;101551.88;4965353;28;20109;-42
2023/12/27 10:28:29;;;;;;;4.95;2.85;;;;;;;18.39;49.36;101541.16;4962758;28;20102;-41
2023/12/27 10:30:56;;;;;;;5.07;3.15;;;;;;;18.37;49.25;101535.06;4960870;28;20127;-42
2023/12/27 10:33:24;;;;;;;4.25;2.80;;;;;;;18.36;49.25;101530.69;4961215;28;20086;-43
2023/12/27 10:35:56;;;;;;;4.75;3.10;;;;;;;18.31;49.63;101512.31;4963171;28;20421;-43
2023/12/27 10:38:23;;;;;;;4.90;2.88;;;;;;;18.28;49.25;101509.91;4958429;28;20423;-43
2023/12/27 10:40:52;;;;;;;5.60;3.15;;;;;;;18.24;49.59;101503.13;4961724;28;20046;-43
2023/12/27 10:43:23;;;;;;;4.50;2.65;;;;;;;18.19;49.72;101500.00;4963960;28;20047;-42
2023/12/27 10:45:50;;;;;;;6.65;2.83;;;;;;;18.16;49.71;101486.88;4957706;28;20051;-43
2023/12/27 10:48:18;;;;;;;4.45;2.92;;;;;;;18.12;49.52;101486.28;4964145;28;20066;-43
2023/12/27 10:50:45;;;;;;;4.85;2.63;;;;;;;18.09;50.02;101483.03;4960847;28;20537;-43
2023/12/27 10:53:18;;;;;;;3.65;2.50;;;;;;;18.05;50.04;101476.25;4962321;28;20569;-43
2023/12/27 10:55:48;;;;;;;4.20;2.55;;;;;;;18.03;50.00;101481.75;4962806;28;20391;-42
2023/12/27 10:58:24;;;;;;;4.18;2.42;;;;;;;17.99;49.73;101483.03;4963897;28;20054;-42
2023/12/27 11:00:51;;;;;;;4.80;2.70;;;;;;;17.98;49.86;101486.69;4963945;28;20399;-43
2023/12/27 11:03:19;;;;;;;4.32;2.05;;;;;;;17.96;50.18;101483.28;4962457;28;20046;-43
2023/12/27 11:05:46;;;;;;;4.38;2.60;;;;;;;17.93;50.09;101480.88;4965935;28;20055;-41
2023/12/27 11:08:15;;;;;;;4.57;2.33;;;;;;;17.91;50.14;101472.97;4965075;28;20065;-42
2023/12/27 11:10:44;;;;;;;2.38;2.00;;;;;;;17.89;50.70;101472.28;4963377;28;20043;-42
2023/12/27 11:13:11;;;;;;;3.53;2.38;;;;;;;17.87;50.57;101473.41;4964564;28;20051;-42
2023/12/27 11:15:44;;;;;;;4.05;2.17;;;;;;;17.86;50.28;101455.63;4963221;28;20050;-43
2023/12/27 11:18:12;;;;;;;2.45;1.85;;;;;;;17.90;50.60;101443.63;4962632;28;20133;-42
2023/12/27 11:20:42;;;;;;;3.35;2.20;;;;;;;17.93;50.46;101435.28;4964072;28;20083;-42
2023/12/27 11:23:09;;;;;;;3.85;2.42;;;;;;;17.99;50.06;101437.44;4964689;28;20047;-42
2023/12/27 11:25:36;;;;;;;4.47;2.47;;;;;;;18.03;50.08;101433.47;4960692;28;20046;-43